createdAt,value
2023-03-07T00:00:27.889Z,6.40
2023-03-07T00:01:49.241Z,6.40
2023-03-07T00:03:04.278Z,6.50
2023-03-07T00:04:19.352Z,6.50
2023-03-07T00:05:34.269Z,6.50
2023-03-07T00:06:49.313Z,6.50
2023-03-07T00:07:58.693Z,6.50
2023-03-07T00:09:14.320Z,6.50
2023-03-07T00:10:23.462Z,6.50
2023-03-07T00:11:38.898Z,6.50
2023-03-07T00:12:53.241Z,6.50
2023-03-07T00:14:02.363Z,6.50
2023-03-07T00:15:24.295Z,6.50
2023-03-07T00:16:32.446Z,6.50
2023-03-07T00:17:54.270Z,6.40
2023-03-07T00:19:02.387Z,6.40
2023-03-07T00:20:24.299Z,6.40
2023-03-07T00:21:33.393Z,6.30
2023-03-07T00:22:55.302Z,6.40
2023-03-07T00:24:04.844Z,6.30
2023-03-07T00:25:26.281Z,6.30
2023-03-07T00:26:39.562Z,6.30
2023-03-07T00:28:01.269Z,6.30
2023-03-07T00:29:09.546Z,6.30
2023-03-07T00:30:31.292Z,6.30
2023-03-07T00:31:40.448Z,6.30
2023-03-07T00:33:02.342Z,6.30
2023-03-07T00:34:11.618Z,6.30
2023-03-07T00:35:33.346Z,6.30
2023-03-07T00:36:48.403Z,6.30
2023-03-07T00:37:57.105Z,6.20
2023-03-07T00:39:12.276Z,6.20
2023-03-07T00:40:20.463Z,6.20
2023-03-07T00:41:36.263Z,6.10
2023-03-07T00:42:51.454Z,6.10
2023-03-07T00:44:07.443Z,6.10
2023-03-07T00:45:29.367Z,6.10
2023-03-07T00:46:44.969Z,6.10
2023-03-07T00:48:06.341Z,6.10
2023-03-07T00:49:15.138Z,6.10
2023-03-07T00:50:37.346Z,6.10
2023-03-07T00:51:52.345Z,6.10
2023-03-07T00:53:08.989Z,6.10
2023-03-07T00:54:25.366Z,6.10
2023-03-07T00:55:40.468Z,6.10
2023-03-07T00:56:49.029Z,6.10
2023-03-07T00:58:04.359Z,6.20
2023-03-07T00:59:13.462Z,6.20
2023-03-07T01:00:35.474Z,6.20
2023-03-07T01:01:44.543Z,6.20
2023-03-07T01:03:08.375Z,6.20
2023-03-07T01:04:17.529Z,6.30
2023-03-07T01:05:39.360Z,6.20
2023-03-07T01:06:48.534Z,6.30
2023-03-07T01:08:10.357Z,6.30
2023-03-07T01:09:25.517Z,6.30
2023-03-07T01:10:34.172Z,6.30
2023-03-07T01:11:49.403Z,6.30
2023-03-07T01:12:58.506Z,6.20
2023-03-07T01:14:07.645Z,6.20
2023-03-07T01:15:23.402Z,6.20
2023-03-07T01:16:36.599Z,6.20
2023-03-07T01:17:58.395Z,6.10
2023-03-07T01:19:12.626Z,6.10
2023-03-07T01:20:36.448Z,6.10
2023-03-07T01:21:47.554Z,6.00
2023-03-07T01:23:09.418Z,6.00
2023-03-07T01:24:20.531Z,6.00
2023-03-07T01:25:48.425Z,6.10
2023-03-07T01:27:03.529Z,6.10
2023-03-07T01:28:21.449Z,6.10
2023-03-07T01:29:43.418Z,6.10
2023-03-07T01:31:13.437Z,6.10
2023-03-07T01:32:29.093Z,6.10
2023-03-07T01:33:51.479Z,6.10
2023-03-07T01:35:07.398Z,6.10
2023-03-07T01:36:31.102Z,6.10
2023-03-07T01:37:47.835Z,6.10
2023-03-07T01:39:07.472Z,6.20
2023-03-07T01:40:19.550Z,6.20
2023-03-07T01:41:32.135Z,6.20
2023-03-07T01:42:48.434Z,6.20
2023-03-07T01:44:10.528Z,6.20
2023-03-07T01:45:40.504Z,6.30
2023-03-07T01:47:00.470Z,6.30
2023-03-07T01:48:22.430Z,6.30
2023-03-07T01:49:45.495Z,6.30
2023-03-07T01:50:54.651Z,6.40
2023-03-07T01:52:42.543Z,6.50
2023-03-07T01:53:53.593Z,6.50
2023-03-07T01:55:31.420Z,6.60
2023-03-07T01:56:58.628Z,6.60
2023-03-07T01:58:24.549Z,6.60
2023-03-07T01:59:52.568Z,6.70
2023-03-07T02:01:07.616Z,6.70
2023-03-07T02:02:26.488Z,6.80
2023-03-07T02:03:48.555Z,6.90
2023-03-07T02:05:32.539Z,6.90
2023-03-07T02:07:01.492Z,6.90
2023-03-07T02:08:18.856Z,6.90
2023-03-07T02:09:42.528Z,6.90
2023-03-07T02:10:51.831Z,7.00
2023-03-07T02:12:15.621Z,6.90
2023-03-07T02:13:24.152Z,6.90
2023-03-07T02:14:45.543Z,7.00
2023-03-07T02:16:00.621Z,7.00
2023-03-07T02:17:15.597Z,7.00
2023-03-07T02:18:35.518Z,7.10
2023-03-07T02:20:16.545Z,7.10
2023-03-07T02:21:48.075Z,7.10
2023-03-07T02:23:11.538Z,7.20
2023-03-07T02:24:53.583Z,7.20
2023-03-07T02:26:50.557Z,7.30
2023-03-07T02:28:05.642Z,7.30
2023-03-07T02:29:27.558Z,7.30
2023-03-07T02:30:42.601Z,7.40
2023-03-07T02:31:58.209Z,7.40
2023-03-07T02:33:19.563Z,7.40
2023-03-07T02:34:31.293Z,7.40
2023-03-07T02:36:01.625Z,7.40
2023-03-07T02:37:12.620Z,7.40
2023-03-07T02:38:37.619Z,7.40
2023-03-07T02:39:48.471Z,7.30
2023-03-07T02:41:11.624Z,7.40
2023-03-07T02:42:30.937Z,7.30
2023-03-07T02:43:56.588Z,7.30
2023-03-07T02:45:29.622Z,7.30
2023-03-07T02:46:58.632Z,7.30
2023-03-07T02:48:14.579Z,7.20
2023-03-07T02:49:36.602Z,7.10
2023-03-07T02:50:50.637Z,7.10
2023-03-07T02:52:12.617Z,7.00
2023-03-07T02:53:21.368Z,7.00
2023-03-07T02:54:42.605Z,7.00
2023-03-07T02:55:51.300Z,6.90
2023-03-07T02:57:12.595Z,6.90
2023-03-07T02:58:21.302Z,6.90
2023-03-07T02:59:35.753Z,6.90
2023-03-07T03:00:50.649Z,6.90
2023-03-07T03:02:05.736Z,6.80
2023-03-07T03:03:21.697Z,6.80
2023-03-07T03:04:43.684Z,6.80
2023-03-07T03:06:12.666Z,6.80
2023-03-07T03:07:28.324Z,6.80
2023-03-07T03:08:50.676Z,6.80
2023-03-07T03:10:05.696Z,6.80
2023-03-07T03:11:27.676Z,6.80
2023-03-07T03:12:36.330Z,6.70
2023-03-07T03:13:50.812Z,6.70
2023-03-07T03:15:05.700Z,6.70
2023-03-07T03:16:15.361Z,6.60
2023-03-07T03:17:37.693Z,6.60
2023-03-07T03:18:46.426Z,6.60
2023-03-07T03:20:07.699Z,6.60
2023-03-07T03:21:17.380Z,6.60
2023-03-07T03:22:38.715Z,6.50
2023-03-07T03:23:48.406Z,6.50
2023-03-07T03:25:02.834Z,6.40
2023-03-07T03:26:19.736Z,6.40
2023-03-07T03:27:42.802Z,6.40
2023-03-07T03:29:00.906Z,6.40
2023-03-07T03:30:22.731Z,6.40
2023-03-07T03:31:38.817Z,6.40
2023-03-07T03:33:00.709Z,6.30
2023-03-07T03:34:16.830Z,6.20
2023-03-07T03:35:33.789Z,6.20
2023-03-07T03:36:48.698Z,6.20
2023-03-07T03:37:56.796Z,6.20
2023-03-07T03:39:18.739Z,6.20
2023-03-07T03:40:31.324Z,6.20
2023-03-07T03:41:52.702Z,6.20
2023-03-07T03:43:03.840Z,6.10
2023-03-07T03:44:25.727Z,6.10
2023-03-07T03:45:33.838Z,6.10
2023-03-07T03:46:55.855Z,6.10
2023-03-07T03:48:05.872Z,6.10
2023-03-07T03:49:27.771Z,6.10
2023-03-07T03:50:38.008Z,6.10
2023-03-07T03:52:00.747Z,6.00
2023-03-07T03:53:22.741Z,6.00
2023-03-07T03:54:37.780Z,6.10
2023-03-07T03:55:52.878Z,6.10
2023-03-07T03:57:07.781Z,6.00
2023-03-07T03:58:22.931Z,6.00
2023-03-07T03:59:37.773Z,6.00
2023-03-07T04:00:54.869Z,6.00
2023-03-07T04:02:09.845Z,5.90
2023-03-07T04:03:24.968Z,5.90
2023-03-07T04:04:39.760Z,5.90
2023-03-07T04:05:54.902Z,5.90
2023-03-07T04:07:16.772Z,5.90
2023-03-07T04:08:24.917Z,5.80
2023-03-07T04:09:46.824Z,5.80
2023-03-07T04:10:54.992Z,5.80
2023-03-07T04:12:10.560Z,5.80
2023-03-07T04:13:25.780Z,5.80
2023-03-07T04:14:33.941Z,5.80
2023-03-07T04:15:49.516Z,5.80
2023-03-07T04:17:04.800Z,5.90
2023-03-07T04:18:12.952Z,5.80
2023-03-07T04:19:22.138Z,5.90
2023-03-07T04:20:36.827Z,5.80
2023-03-07T04:21:51.935Z,5.80
2023-03-07T04:23:13.812Z,5.80
2023-03-07T04:24:29.228Z,5.80
2023-03-07T04:25:43.838Z,5.80
2023-03-07T04:26:58.948Z,5.70
2023-03-07T04:28:23.872Z,5.70
2023-03-07T04:29:33.055Z,5.70
2023-03-07T04:31:03.833Z,5.70
2023-03-07T04:32:13.040Z,5.70
2023-03-07T04:33:34.895Z,5.70
2023-03-07T04:34:56.850Z,5.70
2023-03-07T04:36:26.934Z,5.70
2023-03-07T04:37:56.841Z,5.60
2023-03-07T04:39:25.866Z,5.50
2023-03-07T04:40:48.837Z,5.40
2023-03-07T04:41:58.022Z,5.40
2023-03-07T04:43:17.684Z,5.40
2023-03-07T04:44:32.852Z,5.30
2023-03-07T04:45:43.011Z,5.30
2023-03-07T04:47:04.926Z,5.30
2023-03-07T04:48:16.027Z,5.30
2023-03-07T04:49:37.932Z,5.30
2023-03-07T04:50:48.052Z,5.30
2023-03-07T04:52:03.675Z,5.30
2023-03-07T04:53:18.950Z,5.30
2023-03-07T04:54:28.012Z,5.30
2023-03-07T04:55:42.930Z,5.30
2023-03-07T04:56:58.087Z,5.40
2023-03-07T04:58:20.963Z,5.40
2023-03-07T04:59:29.007Z,5.50
2023-03-07T05:00:45.742Z,5.50
2023-03-07T05:02:00.895Z,5.50
2023-03-07T05:03:12.074Z,5.50
2023-03-07T05:04:33.973Z,5.50
2023-03-07T05:05:49.071Z,5.60
2023-03-07T05:06:57.624Z,5.50
2023-03-07T05:08:12.982Z,5.60
2023-03-07T05:09:22.062Z,5.60
2023-03-07T05:10:43.973Z,5.50
2023-03-07T05:11:59.957Z,5.60
2023-03-07T05:13:28.931Z,5.50
2023-03-07T05:14:44.661Z,5.50
2023-03-07T05:16:07.020Z,5.50
2023-03-07T05:17:15.827Z,5.50
2023-03-07T05:18:39.053Z,5.40
2023-03-07T05:19:47.645Z,5.40
2023-03-07T05:21:03.106Z,5.40
2023-03-07T05:22:17.959Z,5.40
2023-03-07T05:23:26.705Z,5.40
2023-03-07T05:24:47.941Z,5.50
2023-03-07T05:25:56.652Z,5.40
2023-03-07T05:27:18.020Z,5.50
2023-03-07T05:28:33.000Z,5.50
2023-03-07T05:29:48.088Z,5.60
2023-03-07T05:31:03.006Z,5.60
2023-03-07T05:32:18.186Z,5.60
2023-03-07T05:33:33.054Z,5.60
2023-03-07T05:34:48.302Z,5.60
2023-03-07T05:36:00.754Z,5.50
2023-03-07T05:37:16.011Z,5.40
2023-03-07T05:38:24.192Z,5.40
2023-03-07T05:39:39.056Z,5.30
2023-03-07T05:40:54.159Z,5.20
2023-03-07T05:42:02.633Z,5.20
2023-03-07T05:43:19.071Z,5.10
2023-03-07T05:44:35.028Z,5.10
2023-03-07T05:45:44.702Z,5.10
2023-03-07T05:47:06.037Z,5.10
2023-03-07T05:48:35.089Z,5.10
2023-03-07T05:49:57.173Z,5.10
2023-03-07T05:51:13.031Z,5.10
2023-03-07T05:52:28.068Z,5.10
2023-03-07T05:53:36.204Z,5.10
2023-03-07T05:54:58.075Z,5.10
2023-03-07T05:56:13.094Z,5.20
2023-03-07T05:57:35.149Z,5.20
2023-03-07T05:58:50.066Z,5.20
2023-03-07T06:00:20.097Z,5.20
2023-03-07T06:01:53.081Z,5.30
2023-03-07T06:03:22.073Z,5.40
2023-03-07T06:04:51.082Z,5.40
2023-03-07T06:06:20.069Z,5.60
2023-03-07T06:07:49.058Z,5.60
2023-03-07T06:09:19.096Z,5.70
2023-03-07T06:10:37.165Z,5.80
2023-03-07T06:12:00.100Z,5.80
2023-03-07T06:13:16.110Z,5.90
2023-03-07T06:14:39.105Z,5.90
2023-03-07T06:15:52.073Z,5.90
2023-03-07T06:17:14.104Z,6.00
2023-03-07T06:18:25.741Z,6.00
2023-03-07T06:19:47.103Z,6.10
2023-03-07T06:21:00.677Z,6.20
2023-03-07T06:22:20.199Z,6.20
2023-03-07T06:23:38.217Z,6.30
2023-03-07T06:24:51.834Z,6.40
2023-03-07T06:26:15.180Z,6.50
2023-03-07T06:27:26.696Z,6.50
2023-03-07T06:28:48.132Z,6.60
2023-03-07T06:29:57.829Z,6.60
2023-03-07T06:31:24.333Z,6.70
2023-03-07T06:32:39.215Z,6.80
2023-03-07T06:34:01.396Z,6.80
2023-03-07T06:35:17.160Z,6.90
2023-03-07T06:36:46.168Z,6.90
2023-03-07T06:38:01.757Z,7.00
2023-03-07T06:39:21.039Z,7.00
2023-03-07T06:40:36.197Z,7.00
2023-03-07T06:42:06.152Z,7.10
2023-03-07T06:43:28.184Z,7.10
2023-03-07T06:44:37.324Z,7.20
2023-03-07T06:45:59.187Z,7.20
2023-03-07T06:47:12.299Z,7.20
2023-03-07T06:48:34.176Z,7.20
2023-03-07T06:49:55.672Z,7.20
2023-03-07T06:51:14.167Z,7.20
2023-03-07T06:52:30.282Z,7.20
2023-03-07T06:53:41.116Z,7.30
2023-03-07T06:54:56.188Z,7.30
2023-03-07T06:56:05.354Z,7.30
2023-03-07T06:57:27.212Z,7.30
2023-03-07T06:58:35.400Z,7.40
2023-03-07T06:59:59.197Z,7.40
2023-03-07T07:01:10.990Z,7.50
2023-03-07T07:02:34.322Z,7.50
2023-03-07T07:03:43.302Z,7.60
2023-03-07T07:05:06.216Z,7.60
2023-03-07T07:06:14.289Z,7.60
2023-03-07T07:07:38.236Z,7.70
2023-03-07T07:08:46.375Z,7.70
2023-03-07T07:10:08.205Z,7.80
2023-03-07T07:11:17.343Z,7.80
2023-03-07T07:12:32.844Z,7.90
2023-03-07T07:13:47.276Z,7.90
2023-03-07T07:15:02.209Z,8.00
2023-03-07T07:16:25.283Z,8.00
2023-03-07T07:17:39.164Z,8.10
2023-03-07T07:19:01.306Z,8.10
2023-03-07T07:20:11.420Z,8.20
2023-03-07T07:21:33.262Z,8.20
2023-03-07T07:22:49.264Z,8.30
2023-03-07T07:24:18.334Z,8.40
2023-03-07T07:25:41.469Z,8.40
2023-03-07T07:26:56.267Z,8.40
2023-03-07T07:28:11.327Z,8.50
2023-03-07T07:29:27.278Z,8.50
2023-03-07T07:30:56.285Z,8.50
2023-03-07T07:32:25.408Z,8.60
2023-03-07T07:33:54.255Z,8.60
2023-03-07T07:35:25.295Z,8.70
2023-03-07T07:36:41.030Z,8.80
2023-03-07T07:38:02.275Z,8.80
2023-03-07T07:39:12.660Z,8.90
2023-03-07T07:40:36.357Z,9.00
2023-03-07T07:41:44.978Z,9.00
2023-03-07T07:43:02.417Z,9.10
2023-03-07T07:44:24.327Z,9.10
2023-03-07T07:45:55.377Z,9.20
2023-03-07T07:47:24.328Z,9.20
2023-03-07T08:33:01.457Z,15.70
2023-03-07T08:34:31.447Z,15.80
2023-03-07T08:36:00.426Z,15.70
2023-03-07T08:37:22.491Z,16.00
2023-03-07T08:38:38.584Z,16.00
2023-03-07T08:40:00.460Z,16.10
2023-03-07T08:41:16.584Z,16.30
2023-03-07T08:42:25.201Z,16.60
2023-03-07T08:43:43.532Z,16.70
2023-03-07T08:44:51.621Z,16.80
2023-03-07T08:46:00.657Z,16.80
2023-03-07T08:47:17.472Z,16.90
2023-03-07T08:48:33.645Z,17.00
2023-03-07T08:49:48.482Z,17.10
2023-03-07T08:51:04.598Z,17.20
2023-03-07T08:52:19.557Z,17.20
2023-03-07T08:53:34.668Z,17.30
2023-03-07T08:54:49.567Z,17.10
2023-03-07T08:56:11.513Z,17.20
2023-03-07T08:57:26.454Z,17.30
2023-03-07T08:58:41.682Z,17.10
2023-03-07T08:59:57.509Z,17.10
2023-03-07T09:01:13.681Z,17.10
2023-03-07T09:02:28.583Z,17.00
2023-03-07T09:03:43.721Z,17.10
2023-03-07T09:04:58.525Z,17.30
2023-03-07T09:06:25.688Z,17.50
2023-03-07T09:07:34.219Z,17.60
2023-03-07T09:08:48.486Z,17.90
2023-03-07T09:09:56.638Z,18.00
2023-03-07T09:11:05.607Z,18.00
2023-03-07T09:12:20.502Z,18.10
2023-03-07T09:13:28.704Z,18.00
2023-03-07T09:14:37.271Z,18.10
2023-03-07T09:15:51.562Z,18.20
2023-03-07T09:17:06.549Z,18.20
2023-03-07T09:18:24.938Z,18.20
2023-03-07T09:19:39.712Z,18.10
2023-03-07T09:20:54.599Z,18.00
2023-03-07T09:22:03.295Z,18.10
2023-03-07T09:23:24.689Z,18.10
2023-03-07T09:24:39.669Z,18.00
2023-03-07T09:25:54.687Z,18.00
2023-03-07T09:27:09.576Z,18.10
2023-03-07T09:28:24.724Z,18.20
2023-03-07T09:29:39.694Z,18.20
2023-03-07T09:30:54.684Z,18.40
2023-03-07T09:32:10.701Z,18.20
2023-03-07T09:33:25.769Z,18.20
2023-03-07T09:34:47.666Z,18.40
2023-03-07T09:35:55.877Z,18.60
2023-03-07T09:37:18.721Z,18.80
2023-03-07T09:38:34.641Z,18.40
2023-03-07T09:40:03.634Z,18.60
2023-03-07T09:41:55.815Z,18.80
2023-03-07T09:43:20.630Z,18.70
2023-03-07T09:45:15.627Z,18.70
2023-03-07T09:46:48.767Z,18.80
2023-03-07T09:48:35.645Z,19.00
2023-03-07T09:49:57.835Z,19.00
2023-03-07T09:51:31.651Z,19.20
2023-03-07T09:52:44.873Z,19.30
2023-03-07T09:54:12.638Z,19.10
2023-03-07T09:55:25.766Z,18.90
2023-03-07T09:56:59.674Z,18.40
2023-03-07T09:58:21.818Z,17.80
2023-03-07T09:59:48.640Z,17.80
2023-03-07T10:01:03.968Z,17.30
2023-03-07T10:02:30.639Z,16.90
2023-03-07T10:03:48.006Z,16.60
2023-03-07T10:05:30.680Z,16.40
2023-03-07T10:06:57.977Z,16.00
2023-03-07T10:08:17.029Z,16.20
2023-03-07T10:09:39.737Z,16.30
2023-03-07T10:10:48.287Z,16.30
2023-03-07T10:12:08.921Z,16.80
2023-03-07T10:13:32.710Z,17.20
2023-03-07T10:15:17.418Z,17.70
2023-03-07T10:16:52.029Z,17.90
2023-03-07T10:18:06.708Z,18.40
2023-03-07T10:20:00.748Z,18.60
2023-03-07T10:21:40.624Z,18.60
2023-03-07T10:23:27.736Z,18.00
2023-03-07T10:25:02.473Z,18.40
2023-03-07T10:26:42.755Z,18.10
2023-03-07T10:27:59.419Z,17.40
2023-03-07T10:29:23.826Z,16.80
2023-03-07T10:30:39.729Z,16.80
2023-03-07T10:31:51.224Z,17.00
2023-03-07T10:33:13.769Z,17.20
2023-03-07T10:34:43.812Z,16.90
2023-03-07T10:36:13.751Z,16.60
2023-03-07T10:37:26.870Z,16.60
2023-03-07T10:39:12.860Z,16.90
2023-03-07T10:40:32.917Z,17.40
2023-03-07T10:41:54.744Z,17.20
2023-03-07T10:43:04.978Z,16.70
2023-03-07T10:46:01.810Z,16.30
2023-03-07T10:47:36.784Z,16.70
2023-03-07T10:48:55.641Z,16.80
2023-03-07T10:50:37.985Z,16.60
2023-03-07T10:51:58.818Z,16.80
2023-03-07T10:53:27.975Z,17.20
2023-03-07T10:54:44.841Z,17.60
2023-03-07T10:56:09.475Z,17.60
2023-03-07T10:57:31.811Z,17.90
2023-03-07T10:58:49.770Z,18.10
2023-03-07T11:00:20.899Z,18.50
2023-03-07T11:01:37.854Z,18.70
2023-03-07T11:03:00.887Z,18.80
2023-03-07T11:04:22.532Z,19.00
2023-03-07T11:05:40.994Z,19.10
2023-03-07T11:07:03.825Z,18.70
2023-03-07T11:08:26.752Z,18.90
2023-03-07T11:09:59.810Z,19.10
2023-03-07T11:11:37.854Z,19.30
2023-03-07T11:12:56.399Z,19.30
2023-03-07T11:14:19.152Z,19.60
2023-03-07T11:15:33.941Z,19.80
2023-03-07T11:16:53.804Z,20.00
2023-03-07T11:18:15.841Z,20.20
2023-03-07T11:19:46.051Z,19.80
2023-03-07T11:21:00.949Z,20.00
2023-03-07T11:22:24.903Z,20.20
2023-03-07T11:23:33.525Z,20.30
2023-03-07T11:25:24.893Z,20.50
2023-03-07T11:26:39.643Z,20.60
2023-03-07T11:28:10.878Z,20.70
2023-03-07T11:29:28.600Z,20.80
2023-03-07T11:30:58.069Z,21.10
2023-03-07T11:32:28.994Z,20.90
2023-03-07T11:34:14.891Z,20.90
2023-03-07T11:36:11.878Z,20.60
2023-03-07T11:37:39.325Z,20.40
2023-03-07T11:39:15.921Z,20.50
2023-03-07T11:40:34.316Z,20.50
2023-03-07T11:41:54.038Z,19.70
2023-03-07T11:43:31.923Z,19.70
2023-03-07T11:44:48.069Z,20.00
2023-03-07T11:46:18.996Z,20.10
2023-03-07T11:47:33.812Z,20.20
2023-03-07T11:49:04.946Z,20.30
2023-03-07T11:50:30.122Z,20.30
2023-03-07T11:52:10.972Z,20.30
2023-03-07T11:54:13.925Z,20.50
2023-03-07T11:55:51.302Z,20.30
2023-03-07T11:57:38.993Z,20.20
2023-03-07T11:59:35.974Z,20.50
2023-03-07T12:01:06.118Z,19.80
2023-03-07T12:02:43.342Z,19.60
2023-03-07T12:04:30.008Z,19.90
2023-03-07T12:05:56.202Z,19.90
2023-03-07T12:07:49.010Z,19.70
2023-03-07T12:09:10.149Z,19.80
2023-03-07T12:11:25.997Z,19.80
2023-03-07T12:12:41.103Z,19.30
2023-03-07T12:14:13.001Z,19.50
2023-03-07T12:15:50.071Z,19.70
2023-03-07T12:17:41.165Z,19.80
2023-03-07T12:19:32.694Z,20.00
2023-03-07T12:21:15.560Z,20.00
2023-03-07T12:22:41.106Z,20.20
2023-03-07T12:24:26.030Z,20.20
2023-03-07T12:25:58.141Z,20.40
2023-03-07T12:27:26.829Z,20.30
2023-03-07T12:28:40.180Z,20.50
2023-03-07T12:30:31.032Z,20.30
2023-03-07T12:31:52.243Z,20.40
2023-03-07T12:33:01.051Z,19.90
2023-03-07T12:34:27.084Z,19.60
2023-03-07T12:35:45.546Z,19.50
2023-03-07T12:37:03.226Z,19.60
2023-03-07T12:38:45.093Z,19.60
2023-03-07T12:40:15.753Z,19.70
2023-03-07T12:41:37.146Z,19.60
2023-03-07T12:43:07.095Z,19.70
2023-03-07T12:44:39.933Z,19.60
2023-03-07T12:46:29.185Z,19.10
2023-03-07T12:48:04.182Z,18.90
2023-03-07T12:49:49.008Z,18.90
2023-03-07T12:51:18.093Z,19.20
2023-03-07T12:52:42.234Z,19.30
2023-03-07T12:54:28.152Z,19.40
2023-03-07T12:55:57.276Z,19.60
2023-03-07T12:57:23.318Z,19.00
2023-03-07T12:58:49.146Z,18.30
2023-03-07T12:59:58.303Z,17.80
2023-03-07T13:01:26.169Z,17.50
2023-03-07T13:02:50.272Z,17.20
2023-03-07T13:04:22.192Z,17.00
2023-03-07T13:05:40.390Z,17.30
2023-03-07T13:06:56.135Z,17.10
2023-03-07T13:08:14.259Z,17.20
2023-03-07T13:09:40.176Z,17.30
2023-03-07T13:10:52.225Z,17.70
2023-03-07T13:12:23.201Z,17.90
2023-03-07T13:13:50.383Z,17.60
2023-03-07T13:15:24.168Z,17.30
2023-03-07T13:16:54.738Z,17.00
2023-03-07T13:18:27.798Z,16.90
2023-03-07T13:19:43.170Z,16.80
2023-03-07T13:20:52.295Z,16.70
2023-03-07T13:22:23.273Z,16.50
2023-03-07T13:23:38.352Z,16.40
2023-03-07T13:25:03.182Z,16.30
2023-03-07T13:26:19.244Z,16.10
2023-03-07T13:27:47.225Z,16.00
2023-03-07T13:28:57.654Z,15.90
2023-03-07T13:30:20.258Z,15.80
2023-03-07T13:31:30.725Z,15.80
2023-03-07T13:32:58.227Z,15.70
2023-03-07T13:34:58.198Z,15.70
2023-03-07T13:36:35.291Z,15.70
2023-03-07T13:37:58.462Z,15.70
2023-03-07T13:39:43.248Z,15.70
2023-03-07T13:41:07.213Z,15.50
2023-03-07T13:42:55.370Z,15.50
2023-03-07T13:44:04.109Z,15.50
2023-03-07T13:46:04.367Z,15.50
2023-03-07T13:47:47.427Z,15.60
2023-03-07T13:49:10.272Z,15.60
2023-03-07T13:50:41.361Z,15.50
2023-03-07T13:52:25.283Z,15.50
2023-03-07T13:53:42.370Z,15.50
2023-03-07T13:55:07.313Z,15.40
2023-03-07T13:56:35.378Z,15.30
2023-03-07T13:57:57.199Z,15.30
2023-03-07T13:59:28.371Z,15.20
2023-03-07T14:00:53.338Z,15.10
2023-03-07T14:02:10.777Z,15.10
2023-03-07T14:03:37.228Z,15.10
2023-03-07T14:05:02.296Z,15.00
2023-03-07T14:06:27.375Z,15.00
2023-03-07T14:07:43.174Z,15.10
2023-03-07T14:09:02.544Z,15.10
2023-03-07T14:10:26.502Z,15.20
2023-03-07T14:12:09.529Z,15.10
2023-03-07T14:13:57.326Z,15.00
2023-03-07T14:15:37.667Z,15.10
2023-03-07T14:17:05.318Z,15.00
2023-03-07T14:18:41.586Z,15.30
2023-03-07T14:20:18.379Z,15.60
2023-03-07T14:21:35.535Z,15.70
2023-03-07T14:23:09.350Z,15.60
2023-03-07T14:24:27.561Z,15.50
2023-03-07T14:25:55.325Z,15.40
2023-03-07T14:27:17.598Z,15.40
2023-03-07T14:28:28.623Z,15.40
2023-03-07T14:29:43.325Z,15.70
2023-03-07T14:31:08.065Z,15.90
2023-03-07T14:32:31.796Z,16.10
2023-03-07T14:33:47.389Z,16.20
2023-03-07T14:35:10.327Z,16.10
2023-03-07T14:36:46.104Z,16.00
2023-03-07T14:38:15.374Z,15.80
2023-03-07T14:40:03.383Z,15.60
2023-03-07T14:41:46.084Z,15.50
2023-03-07T14:43:10.643Z,15.20
2023-03-07T14:44:49.340Z,15.20
2023-03-07T14:46:35.427Z,15.00
2023-03-07T14:48:08.466Z,14.90
2023-03-07T14:49:44.465Z,14.90
2023-03-07T14:51:15.785Z,14.80
2023-03-07T14:52:32.398Z,14.90
2023-03-07T14:53:42.934Z,14.90
2023-03-07T14:55:08.396Z,14.80
2023-03-07T14:56:25.464Z,14.80
2023-03-07T14:57:52.413Z,14.80
2023-03-07T14:59:04.721Z,14.80
2023-03-07T15:00:39.398Z,14.70
2023-03-07T15:01:48.538Z,14.70
2023-03-07T15:03:14.453Z,14.70
2023-03-07T15:04:36.012Z,14.60
2023-03-07T15:06:00.520Z,14.60
2023-03-07T15:07:18.446Z,14.60
2023-03-07T15:08:49.448Z,14.60
2023-03-07T15:10:18.420Z,14.50
2023-03-07T15:12:03.462Z,14.50
2023-03-07T15:13:33.527Z,14.50
2023-03-07T15:15:01.504Z,14.50
2023-03-07T15:16:25.972Z,14.50
2023-03-07T15:17:50.469Z,14.40
2023-03-07T15:19:08.549Z,14.30
2023-03-07T15:20:32.498Z,14.30
2023-03-07T15:21:58.588Z,14.30
2023-03-07T15:23:32.625Z,14.30
2023-03-07T15:24:51.477Z,14.20
2023-03-07T15:26:21.678Z,14.20
2023-03-07T15:27:37.397Z,14.20
2023-03-07T15:29:00.547Z,14.10
2023-03-07T15:30:30.489Z,14.10
2023-03-07T15:32:13.520Z,14.10
2023-03-07T15:33:27.541Z,14.20
2023-03-07T15:34:52.576Z,14.20
2023-03-07T15:36:27.571Z,14.20
2023-03-07T15:38:11.551Z,14.20
2023-03-07T15:39:33.148Z,14.30
2023-03-07T15:40:54.515Z,14.20
2023-03-07T15:42:08.179Z,14.20
2023-03-07T15:43:35.566Z,14.20
2023-03-07T15:45:00.613Z,14.20
2023-03-07T15:46:23.608Z,14.20
2023-03-07T15:47:47.554Z,14.20
2023-03-07T15:48:59.675Z,14.20
2023-03-07T15:50:32.561Z,14.10
2023-03-07T15:51:43.669Z,14.10
2023-03-07T15:53:23.538Z,14.10
2023-03-07T15:54:47.677Z,14.10
2023-03-07T15:56:32.568Z,14.10
2023-03-07T15:57:45.718Z,14.10
2023-03-07T15:59:28.618Z,14.00
2023-03-07T16:00:43.814Z,14.00
2023-03-07T16:02:37.676Z,14.00
2023-03-07T16:03:58.889Z,14.00
2023-03-07T16:05:27.642Z,14.00
2023-03-07T16:06:51.596Z,14.00
2023-03-07T16:08:28.602Z,13.90
2023-03-07T16:09:57.642Z,13.90
2023-03-07T16:11:26.637Z,13.90
2023-03-07T16:12:58.587Z,13.90
2023-03-07T16:14:30.781Z,13.90
2023-03-07T16:15:52.632Z,13.90
2023-03-07T16:17:47.634Z,13.90
2023-03-07T16:19:03.569Z,13.90
2023-03-07T16:20:33.643Z,13.80
2023-03-07T16:21:42.230Z,13.80
2023-03-07T16:23:03.607Z,13.80
2023-03-07T16:24:32.619Z,13.70
2023-03-07T16:25:54.680Z,13.70
2023-03-07T16:27:09.738Z,13.70
2023-03-07T16:28:24.685Z,13.70
2023-03-07T16:29:39.746Z,13.60
2023-03-07T16:30:55.643Z,13.60
2023-03-07T16:32:10.781Z,13.60
2023-03-07T16:33:32.678Z,13.60
2023-03-07T16:34:41.097Z,13.50
2023-03-07T16:36:03.769Z,13.50
2023-03-07T16:37:13.562Z,13.50
2023-03-07T16:38:35.687Z,13.50
2023-03-07T16:39:43.822Z,13.50
2023-03-07T16:41:08.667Z,13.40
2023-03-07T16:42:28.751Z,13.40
2023-03-07T16:43:45.672Z,13.40
2023-03-07T16:45:00.885Z,13.40
2023-03-07T16:46:18.374Z,13.40
2023-03-07T16:47:32.763Z,13.30
2023-03-07T16:48:55.663Z,13.30
2023-03-07T16:50:05.973Z,13.30
2023-03-07T16:51:30.712Z,13.30
2023-03-07T16:52:39.276Z,13.20
2023-03-07T16:54:03.674Z,13.30
2023-03-07T16:55:14.704Z,13.20
2023-03-07T16:56:43.224Z,13.20
2023-03-07T16:58:06.761Z,13.20
2023-03-07T16:59:24.947Z,13.10
2023-03-07T17:00:40.753Z,13.10
2023-03-07T17:02:09.727Z,13.10
2023-03-07T17:03:39.708Z,13.10
2023-03-07T17:05:01.815Z,13.10
2023-03-07T17:06:33.620Z,13.00
2023-03-07T17:07:46.608Z,13.00
2023-03-07T17:09:08.716Z,13.00
2023-03-07T17:10:17.506Z,13.00
2023-03-07T17:11:40.737Z,13.00
2023-03-07T17:12:50.690Z,13.00
2023-03-07T17:14:09.822Z,13.00
2023-03-07T17:15:28.800Z,12.90
2023-03-07T17:16:42.570Z,12.90
2023-03-07T17:18:05.790Z,12.90
2023-03-07T17:19:29.592Z,12.90
2023-03-07T17:20:51.793Z,12.80
2023-03-07T17:22:20.773Z,12.80
2023-03-07T17:23:51.805Z,12.80
2023-03-07T17:25:21.793Z,12.70
2023-03-07T17:26:49.815Z,12.70
2023-03-07T17:28:20.411Z,12.70
2023-03-07T17:29:37.570Z,12.70
2023-03-07T17:30:51.810Z,12.70
2023-03-07T17:31:59.898Z,12.60
2023-03-07T17:33:21.840Z,12.60
2023-03-07T17:34:39.986Z,12.70
2023-03-07T17:36:04.810Z,12.60
2023-03-07T17:37:13.964Z,12.60
2023-03-07T17:38:35.814Z,12.60
2023-03-07T17:39:45.797Z,12.60
2023-03-07T17:41:07.781Z,12.60
2023-03-07T17:42:16.954Z,12.60
2023-03-07T17:43:39.833Z,12.60
2023-03-07T17:44:47.952Z,12.60
2023-03-07T17:46:15.833Z,12.60
2023-03-07T17:47:24.025Z,12.60
2023-03-07T17:48:45.853Z,12.60
2023-03-07T17:49:53.944Z,12.60
2023-03-07T17:51:16.832Z,12.50
2023-03-07T17:52:25.056Z,12.50
2023-03-07T17:53:46.811Z,12.50
2023-03-07T17:55:01.887Z,12.50
2023-03-07T17:56:24.013Z,12.40
2023-03-07T17:57:38.883Z,12.40
2023-03-07T17:58:54.010Z,12.30
2023-03-07T18:00:12.865Z,12.30
2023-03-07T18:01:35.985Z,12.30
2023-03-07T18:02:51.104Z,12.20
2023-03-07T18:04:00.131Z,12.20
2023-03-07T18:05:15.900Z,12.20
2023-03-07T18:06:23.980Z,12.10
2023-03-07T18:07:40.667Z,12.10
2023-03-07T18:08:55.913Z,12.10
2023-03-07T18:10:12.678Z,12.10
2023-03-07T18:11:28.895Z,12.10
2023-03-07T18:13:02.525Z,12.10
2023-03-07T18:14:23.951Z,12.00
2023-03-07T18:15:32.073Z,12.00
2023-03-07T18:16:54.877Z,12.00
2023-03-07T18:18:12.927Z,12.00
2023-03-07T18:19:41.946Z,12.00
2023-03-07T18:21:16.015Z,12.00
2023-03-07T18:22:44.946Z,12.00
2023-03-07T18:24:13.917Z,12.00
2023-03-07T18:25:42.908Z,12.00
2023-03-07T18:27:14.931Z,12.00
2023-03-07T18:28:43.946Z,12.10
2023-03-07T18:30:12.948Z,12.00
2023-03-07T18:31:42.139Z,12.10